Time;durP1;ratioP1;P1;durP2;ratioP2;P2;SDS_P1;SDS_P2;PMS_P1;PMS_P2;Temp;Humidity;BMP_temperature;BMP_pressure;BME280_temperature;BME280_humidity;BME280_pressure;Samples;Min_cycle;Max_cycle;Signal;HPM_P1;HPM_P2
2023/05/08 00:01:20;;;;;;;10.38;9.45;;;17.30;99.90;;;;;;4962537;28;20035;-94
2023/05/08 00:03:48;;;;;;;10.55;9.55;;;17.30;99.90;;;;;;4962468;28;20125;-94
2023/05/08 00:06:17;;;;;;;11.18;9.98;;;17.30;99.90;;;;;;4958496;28;20062;-93
2023/05/08 00:08:42;;;;;;;11.05;10.05;;;17.20;99.90;;;;;;4981943;28;20494;-95
2023/05/08 00:11:08;;;;;;;11.30;10.23;;;17.20;99.90;;;;;;4963978;28;20034;-93
2023/05/08 00:13:34;;;;;;;12.43;11.18;;;17.30;99.90;;;;;;4959100;29;20043;-93
2023/05/08 00:16:02;;;;;;;14.32;11.15;;;17.30;99.90;;;;;;4959631;29;20019;-94
2023/05/08 00:18:33;;;;;;;13.40;12.00;;;17.20;99.90;;;;;;4942614;29;20032;-96
2023/05/08 00:20:59;;;;;;;12.38;11.05;;;17.20;99.90;;;;;;4959112;29;20031;-95
2023/05/08 00:23:25;;;;;;;12.48;11.18;;;17.20;99.90;;;;;;4941922;29;20035;-93
2023/05/08 00:25:50;;;;;;;11.75;10.55;;;17.20;99.90;;;;;;4943404;29;20054;-93
2023/05/08 00:28:16;;;;;;;12.85;11.55;;;17.20;99.90;;;;;;4946734;29;20494;-95
2023/05/08 00:30:47;;;;;;;12.30;11.02;;;17.20;99.90;;;;;;4943284;29;20035;-95
2023/05/08 00:33:12;;;;;;;12.20;10.90;;;17.10;99.90;;;;;;4927060;29;20035;-93
2023/05/08 00:35:41;;;;;;;13.73;11.10;;;17.10;99.90;;;;;;4943373;29;20489;-94
2023/05/08 00:38:07;;;;;;;12.95;11.65;;;17.10;99.90;;;;;;4952377;28;20026;-94
2023/05/08 00:40:32;;;;;;;13.38;11.98;;;17.10;99.90;;;;;;4958298;29;20070;-93
2023/05/08 00:42:58;;;;;;;12.93;11.73;;;17.10;99.90;;;;;;4946448;28;20039;-94
2023/05/08 00:45:34;;;;;;;13.07;11.77;;;17.10;99.90;;;;;;4942307;29;20023;-94
2023/05/08 00:48:00;;;;;;;13.82;12.50;;;17.10;99.90;;;;;;4957705;28;20024;-95
2023/05/08 00:50:26;;;;;;;13.80;11.80;;;17.00;99.90;;;;;;4959792;29;20079;-95
2023/05/08 00:52:55;;;;;;;12.70;11.50;;;17.00;99.90;;;;;;4952805;28;20031;-93
2023/05/08 00:55:23;;;;;;;12.80;11.50;;;17.00;99.90;;;;;;4961396;28;20035;-95
2023/05/08 00:57:51;;;;;;;13.73;11.98;;;17.00;99.90;;;;;;4960446;28;20034;-93
2023/05/08 01:00:25;;;;;;;12.77;11.48;;;16.90;99.90;;;;;;4961504;28;20566;-95
2023/05/08 01:02:51;;;;;;;12.38;11.07;;;16.90;99.90;;;;;;4962091;28;20117;-93
2023/05/08 01:05:26;;;;;;;12.90;11.63;;;16.90;99.90;;;;;;4942851;29;20023;-94
2023/05/08 01:07:53;;;;;;;14.50;12.57;;;16.90;99.90;;;;;;4953289;29;20023;-91
2023/05/08 01:10:19;;;;;;;14.02;12.63;;;16.90;99.90;;;;;;4941476;29;20078;-94
2023/05/08 01:13:10;;;;;;;15.07;13.48;;;16.80;99.90;;;;;;4941968;29;20110;-94
2023/05/08 01:15:46;;;;;;;14.05;12.65;;;16.80;99.90;;;;;;4949836;28;20053;-94
2023/05/08 01:18:32;;;;;;;14.30;12.77;;;16.80;99.90;;;;;;4947669;29;20024;-95
2023/05/08 01:21:26;;;;;;;13.75;12.48;;;16.80;99.90;;;;;;4974680;28;20415;-94
2023/05/08 01:23:51;;;;;;;13.80;12.40;;;16.80;99.90;;;;;;4943072;29;20042;-94
2023/05/08 01:26:35;;;;;;;13.85;12.48;;;16.80;99.90;;;;;;4972610;28;20027;-95
2023/05/08 01:29:35;;;;;;;16.00;12.07;;;16.70;99.90;;;;;;4990403;28;20041;-95
2023/05/08 01:32:18;;;;;;;14.82;13.32;;;16.70;99.90;;;;;;4993084;28;20138;-94
2023/05/08 01:35:05;;;;;;;14.80;13.00;;;16.70;99.90;;;;;;4985625;28;20022;-93
2023/05/08 01:37:48;;;;;;;13.65;12.35;;;16.60;99.90;;;;;;4979932;28;20467;-91
2023/05/08 01:40:34;;;;;;;15.32;12.55;;;16.60;99.90;;;;;;4979838;28;20099;-95
2023/05/08 01:43:18;;;;;;;13.52;12.23;;;16.60;99.90;;;;;;4960283;28;20019;-95
2023/05/08 01:45:47;;;;;;;13.48;12.18;;;16.60;99.90;;;;;;4942767;29;20027;-95
2023/05/08 01:48:23;;;;;;;13.57;12.18;;;16.60;99.90;;;;;;4958950;29;20026;-94
2023/05/08 01:51:06;;;;;;;14.52;13.13;;;16.60;99.90;;;;;;4953011;28;20113;-92
2023/05/08 01:53:41;;;;;;;14.10;12.45;;;16.60;99.90;;;;;;4977210;28;20030;-92
2023/05/08 01:56:17;;;;;;;13.60;12.27;;;16.50;99.90;;;;;;4959898;28;20019;-92
2023/05/08 01:58:44;;;;;;;14.25;12.88;;;16.50;99.90;;;;;;4959783;28;20458;-94
2023/05/08 02:01:12;;;;;;;13.95;12.55;;;16.50;99.90;;;;;;4960180;28;20045;-95
2023/05/08 02:03:43;;;;;;;15.05;13.45;;;16.50;99.90;;;;;;4960008;28;20034;-94
2023/05/08 02:06:09;;;;;;;;;;;16.40;99.90;;;;;;4960314;28;20063;-94
2023/05/08 02:08:38;;;;;;;14.63;13.13;;;16.40;99.90;;;;;;4959574;28;19986;-94
2023/05/08 02:11:05;;;;;;;14.77;13.25;;;16.30;99.90;;;;;;4975674;28;20038;-96
2023/05/08 02:13:32;;;;;;;15.20;13.65;;;16.30;99.90;;;;;;4954576;29;20027;-94
2023/05/08 02:16:00;;;;;;;14.52;13.05;;;16.30;99.90;;;;;;4940551;29;20082;-93
2023/05/08 02:18:28;;;;;;;15.57;13.98;;;16.30;99.90;;;;;;4968105;28;20165;-92
2023/05/08 02:20:55;;;;;;;16.08;14.57;;;16.20;99.90;;;;;;4959989;28;20033;-95
2023/05/08 02:23:26;;;;;;;14.82;13.32;;;16.20;99.90;;;;;;4959903;28;20042;-95
2023/05/08 02:25:56;;;;;;;15.15;13.73;;;16.20;99.90;;;;;;4955990;28;20046;-96
2023/05/08 02:28:23;;;;;;;15.80;14.23;;;16.20;99.90;;;;;;4956022;28;20033;-89
2023/05/08 02:30:50;;;;;;;16.13;14.52;;;16.10;99.90;;;;;;4971299;28;20477;-94
2023/05/08 02:33:19;;;;;;;16.58;14.60;;;16.10;99.90;;;;;;4949282;28;20035;-94
2023/05/08 02:35:48;;;;;;;15.90;14.30;;;16.10;99.90;;;;;;4975150;28;20459;-94
2023/05/08 02:38:23;;;;;;;17.73;15.80;;;16.10;99.90;;;;;;4947826;28;20054;-93
2023/05/08 02:40:59;;;;;;;16.45;14.85;;;16.00;99.90;;;;;;4958822;28;20026;-92
2023/05/08 02:43:29;;;;;;;15.82;14.25;;;16.00;99.90;;;;;;4967442;28;20030;-93
2023/05/08 02:46:10;;;;;;;17.17;14.90;;;16.00;99.90;;;;;;4959089;28;20023;-93
2023/05/08 02:48:40;;;;;;;15.70;14.10;;;16.00;99.90;;;;;;4939918;29;20059;-95
2023/05/08 02:51:21;;;;;;;16.08;14.38;;;15.90;99.90;;;;;;4945961;29;20090;-94
2023/05/08 02:53:55;;;;;;;16.65;14.90;;;15.90;99.90;;;;;;4940112;29;20036;-92
2023/05/08 02:57:02;;;;;;;17.02;15.23;;;15.80;99.90;;;;;;4956141;29;20369;-93
2023/05/08 02:59:38;;;;;;;16.73;15.05;;;15.80;99.90;;;;;;4926867;29;20039;-88
2023/05/08 03:02:15;;;;;;;17.48;15.63;;;15.80;99.90;;;;;;4940773;29;20188;-93
2023/05/08 03:05:02;;;;;;;16.27;14.68;;;15.70;99.90;;;;;;4974693;28;20031;-92
2023/05/08 03:07:30;;;;;;;17.58;15.77;;;15.70;99.90;;;;;;4962095;28;20026;-93
2023/05/08 03:10:09;;;;;;;16.85;15.05;;;15.70;99.90;;;;;;4955328;28;20062;-93
2023/05/08 03:12:42;;;;;;;16.77;14.98;;;15.70;99.90;;;;;;4985096;28;20066;-88
2023/05/08 03:15:14;;;;;;;16.33;14.65;;;15.70;99.90;;;;;;4986367;28;20039;-91
2023/05/08 03:17:45;;;;;;;16.20;14.65;;;15.60;99.90;;;;;;4982655;28;20015;-95
2023/05/08 03:20:18;;;;;;;16.23;14.63;;;15.60;99.90;;;;;;4982777;28;20062;-93
2023/05/08 03:22:47;;;;;;;15.82;14.23;;;15.60;99.90;;;;;;4966831;29;20027;-92
2023/05/08 03:25:15;;;;;;;16.27;14.60;;;15.50;99.90;;;;;;4952759;29;20019;-93
2023/05/08 03:27:42;;;;;;;16.58;14.88;;;15.50;99.90;;;;;;4943404;29;20042;-93
2023/05/08 03:30:12;;;;;;;17.00;15.13;;;15.50;99.90;;;;;;4960438;29;20023;-94
2023/05/08 03:32:41;;;;;;;16.92;15.23;;;15.50;99.90;;;;;;4943949;29;20036;-94
2023/05/08 03:35:08;;;;;;;16.98;15.38;;;15.50;99.90;;;;;;4943069;29;20027;-93
2023/05/08 03:37:35;;;;;;;18.98;15.40;;;15.40;99.90;;;;;;4943816;29;20444;-93
2023/05/08 03:40:00;;;;;;;17.75;15.90;;;15.40;99.90;;;;;;4958691;29;20027;-93
2023/05/08 03:42:27;;;;;;;16.98;15.20;;;15.40;99.90;;;;;;4962336;28;20161;-94
2023/05/08 03:44:53;;;;;;;17.67;15.88;;;15.40;99.90;;;;;;4964420;28;21510;-93
2023/05/08 03:47:24;;;;;;;17.92;16.05;;;15.40;99.90;;;;;;4981631;28;20035;-95
2023/05/08 03:49:51;;;;;;;17.75;15.88;;;15.30;99.90;;;;;;4981125;28;20023;-94
2023/05/08 03:52:17;;;;;;;17.38;15.48;;;15.30;99.90;;;;;;4974364;28;20035;-92
2023/05/08 03:54:43;;;;;;;17.25;15.52;;;15.30;99.90;;;;;;4942206;29;20062;-92
2023/05/08 03:57:09;;;;;;;16.70;15.10;;;15.30;99.90;;;;;;4961282;28;20031;-93
2023/05/08 03:59:53;;;;;;;17.27;15.48;;;15.30;99.90;;;;;;4961928;28;20034;-93
2023/05/08 04:02:22;;;;;;;16.67;14.77;;;15.30;99.90;;;;;;4962578;28;20070;-94
2023/05/08 04:04:54;;;;;;;17.65;15.68;;;15.30;99.90;;;;;;4963114;28;20379;-93
2023/05/08 04:07:58;;;;;;;19.10;17.10;;;15.30;99.90;;;;;;4961032;28;20049;-92
2023/05/08 04:10:30;;;;;;;18.83;16.83;;;15.30;99.90;;;;;;4979308;28;20437;-94
2023/05/08 04:13:15;;;;;;;19.83;17.48;;;15.30;99.90;;;;;;4961737;28;20038;-93
2023/05/08 04:15:51;;;;;;;19.40;17.50;;;15.30;99.90;;;;;;4978329;28;20023;-94
2023/05/08 04:18:23;;;;;;;19.50;17.05;;;15.30;99.90;;;;;;4978994;28;20029;-94
2023/05/08 04:20:53;;;;;;;19.95;17.95;;;15.30;99.90;;;;;;4961409;28;20034;-96
2023/05/08 04:23:21;;;;;;;19.90;17.77;;;15.30;99.90;;;;;;4961900;28;20470;-94
2023/05/08 04:25:48;;;;;;;18.35;16.60;;;15.30;99.90;;;;;;4961665;28;20102;-94
2023/05/08 04:28:14;;;;;;;18.48;16.67;;;15.20;99.90;;;;;;4961854;28;20031;-94
2023/05/08 04:30:44;;;;;;;18.65;16.75;;;15.30;99.90;;;;;;4961312;28;20081;-91
2023/05/08 04:33:20;;;;;;;19.60;16.92;;;15.30;99.90;;;;;;4961752;28;20069;-92
2023/05/08 04:35:47;;;;;;;18.67;16.88;;;15.30;99.90;;;;;;4946881;28;20038;-94
2023/05/08 04:38:15;;;;;;;17.52;15.77;;;15.30;99.90;;;;;;4961736;28;20026;-93
2023/05/08 04:40:46;;;;;;;19.08;17.17;;;15.30;99.90;;;;;;4946059;28;20034;-94
2023/05/08 04:43:25;;;;;;;;;;;;;;;;;;;;;
2023/05/08 04:46:07;;;;;;;19.80;17.92;;;15.20;99.90;;;;;;4991114;28;20486;-95
2023/05/08 04:48:41;;;;;;;19.08;17.02;;;15.20;99.90;;;;;;4946046;28;20043;-94
2023/05/08 04:51:37;;;;;;;18.02;16.23;;;15.20;99.90;;;;;;4972488;28;20023;-94
2023/05/08 04:54:16;;;;;;;;;;;;;;;;;;;;;
2023/05/08 04:56:54;;;;;;;;;;;;;;;;;;;;;
2023/05/08 04:59:23;;;;;;;17.48;15.77;;;15.20;99.90;;;;;;5000686;28;20062;-91
2023/05/08 05:02:06;;;;;;;18.08;16.38;;;15.20;99.90;;;;;;4970670;28;20042;-89
2023/05/08 05:04:35;;;;;;;19.08;16.95;;;15.30;99.90;;;;;;4987112;28;20038;-92
2023/05/08 05:07:11;;;;;;;18.90;17.00;;;15.30;99.90;;;;;;4974630;28;20356;-92
2023/05/08 05:09:44;;;;;;;18.02;16.23;;;15.20;99.90;;;;;;4937890;28;20055;-93
2023/05/08 05:12:31;;;;;;;;;;;;;;;;;;;;;
2023/05/08 05:15:07;;;;;;;18.85;16.30;;;15.30;99.90;;;;;;4961636;28;20049;-92
2023/05/08 05:18:11;;;;;;;19.05;17.15;;;15.30;99.90;;;;;;4991179;28;20073;-94
2023/05/08 05:20:52;;;;;;;19.67;16.65;;;15.30;99.90;;;;;;4938693;29;20038;-94
2023/05/08 05:23:58;;;;;;;19.52;17.73;;;15.30;99.90;;;;;;4941566;29;20031;-93
2023/05/08 05:26:43;;;;;;;19.50;17.48;;;15.30;99.90;;;;;;4941080;29;20023;-93
2023/05/08 05:29:42;;;;;;;20.17;18.23;;;15.30;99.90;;;;;;4925086;29;20043;-94
2023/05/08 05:33:05;;;;;;;19.90;18.00;;;15.30;99.90;;;;;;4961384;28;20363;-92
2023/05/08 05:35:38;;;;;;;18.48;16.55;;;15.30;99.90;;;;;;4961392;28;20027;-93
2023/05/08 05:38:25;;;;;;;;;;;;;;;;;;;;;
2023/05/08 05:41:27;;;;;;;19.65;17.75;;;15.30;99.90;;;;;;4963112;28;20041;-92
2023/05/08 05:44:04;;;;;;;20.92;18.92;;;15.40;99.90;;;;;;4941268;28;20170;-93
2023/05/08 05:46:46;;;;;;;;;;;;;;;;;;;;;
2023/05/08 05:49:58;;;;;;;19.77;17.88;;;15.40;99.90;;;;;;4957318;29;20027;-92
2023/05/08 05:53:17;;;;;;;18.80;17.00;;;15.40;99.90;;;;;;4940034;29;20039;-92
2023/05/08 05:55:57;;;;;;;19.77;17.87;;;15.50;99.90;;;;;;4951530;29;20031;-92
2023/05/08 05:58:43;;;;;;;19.00;17.13;;;15.50;99.90;;;;;;4940836;29;20023;-92
2023/05/08 06:01:20;;;;;;;18.05;16.25;;;15.60;99.90;;;;;;4946677;28;20034;-93
2023/05/08 06:03:48;;;;;;;19.45;17.33;;;15.60;99.90;;;;;;4956795;28;20038;-91
2023/05/08 06:06:16;;;;;;;19.75;17.75;;;15.60;99.90;;;;;;4961218;28;20031;-93
2023/05/08 06:08:47;;;;;;;19.35;17.55;;;15.70;99.90;;;;;;4978788;28;20130;-92
2023/05/08 06:11:24;;;;;;;19.70;17.80;;;15.70;99.90;;;;;;4956328;28;20027;-94
2023/05/08 06:14:00;;;;;;;20.48;18.38;;;15.80;99.90;;;;;;4969191;28;20047;-92
2023/05/08 06:16:34;;;;;;;19.65;17.75;;;15.80;99.90;;;;;;4941318;28;20662;-93
2023/05/08 06:19:05;;;;;;;19.95;17.90;;;15.90;99.90;;;;;;4962238;28;20023;-94
2023/05/08 06:21:39;;;;;;;21.42;19.30;;;15.90;99.90;;;;;;4959205;28;20034;-93
2023/05/08 06:24:15;;;;;;;;;;;;;;;;;;;;;
2023/05/08 06:26:46;;;;;;;22.27;19.05;;;16.00;99.90;;;;;;4963487;28;20570;-92
2023/05/08 06:29:12;;;;;;;;;;;16.10;99.90;;;;;;4961897;28;20062;-92
2023/05/08 06:31:38;;;;;;;20.67;18.48;;;16.10;99.90;;;;;;4977514;28;19921;-94
2023/05/08 06:34:11;;;;;;;26.27;20.38;;;16.10;99.90;;;;;;4960045;28;20489;-92
2023/05/08 06:36:48;;;;;;;25.38;21.42;;;16.10;99.90;;;;;;4962005;28;20031;-92
2023/05/08 06:39:36;;;;;;;;;;;;;;;;;;;;;
2023/05/08 06:42:05;;;;;;;25.38;21.23;;;16.20;99.90;;;;;;4984189;28;20053;-91
2023/05/08 06:44:36;;;;;;;24.98;21.35;;;16.30;99.90;;;;;;4982836;28;20011;-91
2023/05/08 06:47:04;;;;;;;25.52;20.30;;;16.30;99.90;;;;;;4981140;28;20033;-92
2023/05/08 06:49:37;;;;;;;24.48;21.20;;;16.30;99.90;;;;;;4947411;28;20054;-94
2023/05/08 06:52:05;;;;;;;26.08;19.73;;;16.30;99.90;;;;;;4959534;28;20042;-93
2023/05/08 06:54:40;;;;;;;26.48;20.33;;;16.40;99.90;;;;;;4976211;28;20027;-93
2023/05/08 06:57:07;;;;;;;28.15;19.90;;;16.40;99.90;;;;;;4958939;28;20029;-91
2023/05/08 06:59:39;;;;;;;28.75;21.27;;;16.40;99.90;;;;;;4958532;28;20023;-94
2023/05/08 07:02:17;;;;;;;27.70;22.23;;;16.40;99.90;;;;;;4939686;29;20031;-92
2023/05/08 07:05:02;;;;;;;;;;;;;;;;;;;;;
2023/05/08 07:07:31;;;;;;;28.50;20.80;;;16.50;99.90;;;;;;4954544;28;20035;-91
2023/05/08 07:10:06;;;;;;;30.75;21.48;;;16.60;99.90;;;;;;4948240;28;20043;-92
2023/05/08 07:12:38;;;;;;;26.48;21.02;;;16.70;99.90;;;;;;4959244;28;20066;-92
2023/05/08 07:15:15;;;;;;;32.55;24.45;;;16.70;99.90;;;;;;4958183;28;20118;-93
2023/05/08 07:17:43;;;;;;;25.10;21.33;;;16.80;99.90;;;;;;4939175;29;20020;-92
2023/05/08 07:20:12;;;;;;;30.70;21.55;;;16.90;99.90;;;;;;4953084;28;20074;-92
2023/05/08 07:22:48;;;;;;;27.05;21.67;;;16.90;99.90;;;;;;4974759;28;20043;-91
2023/05/08 07:25:23;;;;;;;25.52;19.40;;;17.00;99.90;;;;;;4958162;28;20035;-92
2023/05/08 07:27:56;;;;;;;23.80;20.15;;;17.10;99.90;;;;;;4958538;28;20031;-92
2023/05/08 07:30:30;;;;;;;29.33;23.55;;;17.20;99.90;;;;;;4942028;28;20109;-92
2023/05/08 07:33:07;;;;;;;25.27;20.77;;;17.30;99.90;;;;;;4974376;28;20038;-92
2023/05/08 07:35:43;;;;;;;29.48;21.60;;;17.40;99.90;;;;;;4951059;29;20058;-93
2023/05/08 07:38:14;;;;;;;26.35;21.70;;;17.50;99.90;;;;;;4938749;29;20047;-93
2023/05/08 07:41:08;;;;;;;27.45;21.17;;;17.60;99.90;;;;;;4922665;28;20067;-93
2023/05/08 07:43:39;;;;;;;27.27;21.30;;;17.70;99.90;;;;;;4950471;29;20028;-92
2023/05/08 07:46:20;;;;;;;27.95;20.77;;;17.80;99.90;;;;;;4939058;29;20038;-92
2023/05/08 07:48:49;;;;;;;31.02;23.02;;;17.90;99.90;;;;;;4938847;29;20031;-94
2023/05/08 07:51:23;;;;;;;27.58;21.65;;;17.90;99.90;;;;;;4954882;28;20023;-93
2023/05/08 07:57:28;;;;;;;37.13;26.35;;;18.10;99.90;;;;;;4975914;28;20035;-95
2023/05/08 08:00:12;;;;;;;35.00;24.48;;;18.10;99.90;;;;;;4977763;28;20115;-95
2023/05/08 08:02:40;;;;;;;29.17;22.08;;;18.10;99.90;;;;;;4978727;28;20061;-93
2023/05/08 08:05:14;;;;;;;28.83;22.02;;;18.10;99.90;;;;;;4961286;28;20026;-91
2023/05/08 08:07:42;;;;;;;30.42;22.92;;;18.10;99.90;;;;;;4978066;28;20066;-94
2023/05/08 08:10:11;;;;;;;29.60;21.67;;;18.20;99.90;;;;;;4978325;28;20080;-95
2023/05/08 08:12:48;;;;;;;28.45;22.05;;;18.30;99.90;;;;;;4942095;29;20075;-94
2023/05/08 08:15:16;;;;;;;32.88;23.58;;;18.30;99.90;;;;;;4942604;29;20027;-94
2023/05/08 08:17:45;;;;;;;30.92;23.98;;;18.30;99.90;;;;;;4952790;29;20027;-95
2023/05/08 08:20:19;;;;;;;31.23;24.63;;;18.50;99.90;;;;;;4958983;29;20028;-94
2023/05/08 08:23:11;;;;;;;28.70;23.77;;;18.50;99.90;;;;;;4950058;29;20039;-94
2023/05/08 08:25:36;;;;;;;;;;;18.50;99.90;;;;;;4947124;29;20086;-92
2023/05/08 08:28:10;;;;;;;30.17;23.45;;;18.50;99.90;;;;;;4951550;29;19906;-93
2023/05/08 08:30:39;;;;;;;28.13;23.10;;;18.50;99.90;;;;;;4960154;29;20033;-93
2023/05/08 08:33:07;;;;;;;30.40;24.95;;;18.50;99.90;;;;;;4956204;28;20055;-94
2023/05/08 08:35:35;;;;;;;29.15;24.42;;;18.50;99.90;;;;;;5001994;28;20010;-93
2023/05/08 08:38:07;;;;;;;30.27;24.45;;;18.60;99.90;;;;;;4971559;28;20091;-91
2023/05/08 08:40:41;;;;;;;30.13;23.88;;;18.60;99.90;;;;;;4946280;28;20117;-94
2023/05/08 08:43:16;;;;;;;34.45;27.10;;;18.70;99.90;;;;;;4961847;28;20435;-94
2023/05/08 08:45:58;;;;;;;32.35;26.17;;;18.70;99.90;;;;;;4990819;28;20031;-93
2023/05/08 08:48:30;;;;;;;30.42;24.83;;;18.60;99.90;;;;;;4964946;28;20068;-93
2023/05/08 08:51:08;;;;;;;29.75;24.48;;;18.70;99.90;;;;;;4957878;28;20030;-93
2023/05/08 08:53:41;;;;;;;28.50;22.75;;;18.70;99.90;;;;;;4960908;28;20472;-95
2023/05/08 08:56:32;;;;;;;29.88;23.70;;;18.70;99.90;;;;;;4977690;28;20057;-95
2023/05/08 08:59:00;;;;;;;27.95;22.80;;;18.80;99.90;;;;;;4977280;28;20208;-94
2023/05/08 09:01:31;;;;;;;33.33;27.15;;;18.90;99.90;;;;;;4960710;28;20033;-93
2023/05/08 09:04:07;;;;;;;31.92;26.67;;;18.90;99.90;;;;;;4945372;28;20031;-92
2023/05/08 09:06:40;;;;;;;30.65;25.00;;;18.90;99.90;;;;;;4960754;28;20019;-93
2023/05/08 09:09:27;;;;;;;28.70;23.02;;;18.90;99.90;;;;;;4959259;28;20137;-95
2023/05/08 09:12:18;;;;;;;25.58;22.20;;;18.90;99.90;;;;;;4947127;28;20134;-93
2023/05/08 09:15:10;;;;;;;;;;;;;;;;;;;;;
2023/05/08 09:18:13;;;;;;;;;;;;;;;;;;;;;
2023/05/08 09:20:51;;;;;;;29.85;23.73;;;19.10;99.90;;;;;;4964527;28;20097;-94
2023/05/08 09:23:33;;;;;;;26.70;22.50;;;19.10;99.90;;;;;;4961681;28;20027;-93
2023/05/08 09:26:26;;;;;;;24.75;22.02;;;19.20;99.90;;;;;;4962176;28;20059;-93
2023/05/08 09:29:08;;;;;;;25.77;21.65;;;19.20;99.90;;;;;;4980419;28;20034;-93
2023/05/08 09:31:41;;;;;;;22.98;20.48;;;19.20;99.90;;;;;;4980135;28;20117;-93
2023/05/08 09:34:38;;;;;;;;;;;;;;;;;;;;;
2023/05/08 09:37:09;;;;;;;25.83;21.95;;;19.30;99.90;;;;;;4999290;28;20534;-93
2023/05/08 09:39:46;;;;;;;26.13;22.38;;;19.40;99.90;;;;;;5001063;28;20030;-93
2023/05/08 09:42:31;;;;;;;;;;;;;;;;;;;;;
2023/05/08 09:45:01;;;;;;;24.30;21.20;;;19.40;99.90;;;;;;4970637;28;20122;-94
2023/05/08 09:47:56;;;;;;;26.52;22.73;;;19.50;99.90;;;;;;4974298;28;20026;-94
2023/05/08 09:50:24;;;;;;;27.40;23.02;;;19.60;99.90;;;;;;4974846;29;20062;-91
2023/05/08 09:53:09;;;;;;;26.13;22.25;;;19.60;99.90;;;;;;4953476;29;20185;-94
2023/05/08 09:55:52;;;;;;;25.63;21.08;;;19.70;99.90;;;;;;4998685;28;20104;-94
2023/05/08 09:58:31;;;;;;;;;;;;;;;;;;;;;
2023/05/08 10:01:00;;;;;;;26.90;23.38;;;19.90;99.90;;;;;;4988015;28;20125;-93
2023/05/08 10:04:06;;;;;;;26.73;21.90;;;20.00;99.90;;;;;;4945110;28;20041;-95
2023/05/08 10:06:36;;;;;;;22.13;19.75;;;20.10;99.90;;;;;;4960372;28;20042;-94
2023/05/08 10:09:28;;;;;;;22.58;20.05;;;20.10;99.90;;;;;;4963752;28;20019;-93
2023/05/08 10:11:54;;;;;;;28.02;23.27;;;20.30;99.90;;;;;;4947053;29;20047;-93
2023/05/08 10:14:24;;;;;;;24.52;21.75;;;20.30;99.90;;;;;;4949872;29;20091;-94
2023/05/08 10:17:05;;;;;;;25.33;21.73;;;20.30;99.90;;;;;;4952408;29;20031;-95
2023/05/08 10:19:44;;;;;;;27.98;23.85;;;20.30;99.90;;;;;;4962241;28;20289;-90
2023/05/08 10:22:14;;;;;;;28.83;23.67;;;20.30;99.90;;;;;;4979790;28;20055;-94
2023/05/08 10:24:45;;;;;;;26.13;23.40;;;20.40;99.90;;;;;;4963478;29;20011;-93
2023/05/08 10:27:26;;;;;;;24.95;22.15;;;20.50;99.90;;;;;;4986579;28;20022;-93
2023/05/08 10:30:13;;;;;;;23.42;20.83;;;20.50;99.90;;;;;;4983188;28;20031;-94
2023/05/08 10:33:03;;;;;;;21.92;19.63;;;20.60;99.90;;;;;;4967447;28;20067;-93
2023/05/08 10:35:31;;;;;;;23.25;20.20;;;20.70;99.90;;;;;;4948427;29;20078;-94
2023/05/08 10:38:10;;;;;;;23.60;21.17;;;20.70;99.90;;;;;;4956983;29;20066;-93
2023/05/08 10:40:56;;;;;;;;;;;;;;;;;;;;;
2023/05/08 10:43:32;;;;;;;24.83;22.05;;;20.80;99.90;;;;;;4969326;28;20036;-92
2023/05/08 10:46:37;;;;;;;25.13;22.60;;;20.70;99.90;;;;;;4978858;28;20113;-95
2023/05/08 10:49:23;;;;;;;27.38;24.58;;;20.70;99.90;;;;;;4978559;28;20030;-94
2023/05/08 10:52:08;;;;;;;25.83;23.33;;;20.60;99.90;;;;;;4977947;28;20066;-94
2023/05/08 10:54:53;;;;;;;26.58;23.98;;;20.60;99.90;;;;;;4978123;28;20026;-93
2023/05/08 10:57:21;;;;;;;26.80;24.10;;;20.50;99.90;;;;;;4979247;28;20027;-94
2023/05/08 10:59:49;;;;;;;25.63;23.02;;;20.40;99.90;;;;;;4977963;28;20373;-95
2023/05/08 11:02:25;;;;;;;25.60;23.08;;;20.30;99.90;;;;;;4963086;28;20039;-93
2023/05/08 11:04:50;;;;;;;28.20;25.38;;;20.30;99.90;;;;;;4956913;28;20030;-94
2023/05/08 11:07:41;;;;;;;27.75;25.05;;;20.20;99.90;;;;;;4959049;28;20045;-94
2023/05/08 11:10:15;;;;;;;27.83;25.05;;;20.20;99.90;;;;;;4958623;28;20074;-94
2023/05/08 11:13:02;;;;;;;29.38;26.48;;;20.20;99.90;;;;;;4962241;28;20039;-94
2023/05/08 11:15:39;;;;;;;29.77;26.77;;;20.20;99.90;;;;;;4955766;29;20042;-93
2023/05/08 11:18:07;;;;;;;28.52;25.77;;;20.10;99.90;;;;;;4939647;29;20110;-94
2023/05/08 11:20:41;;;;;;;27.83;25.13;;;20.10;99.90;;;;;;4956716;29;20051;-92
2023/05/08 11:23:29;;;;;;;28.88;26.00;;;20.10;99.90;;;;;;4939472;29;20050;-92
2023/05/08 11:26:17;;;;;;;29.25;26.23;;;20.10;99.90;;;;;;4926308;28;20340;-93
2023/05/08 11:28:53;;;;;;;26.83;24.23;;;20.10;99.90;;;;;;4958715;28;20026;-93
2023/05/08 11:31:19;;;;;;;30.85;27.85;;;20.10;99.90;;;;;;4971158;28;20024;-93
2023/05/08 11:33:48;;;;;;;31.73;28.63;;;20.00;99.90;;;;;;4942275;29;20129;-93
2023/05/08 11:36:21;;;;;;;29.58;26.65;;;20.00;99.90;;;;;;4960102;29;20031;-93
2023/05/08 11:39:15;;;;;;;28.70;25.98;;;20.00;99.90;;;;;;4959369;29;20484;-93
2023/05/08 11:41:50;;;;;;;30.02;27.05;;;20.00;99.90;;;;;;4963237;28;20032;-92
2023/05/08 11:44:19;;;;;;;32.05;28.77;;;20.00;99.90;;;;;;4981473;28;20109;-93
2023/05/08 11:46:53;;;;;;;29.88;26.98;;;20.00;99.90;;;;;;4981707;28;20026;-93
2023/05/08 11:49:22;;;;;;;30.05;27.17;;;20.10;99.90;;;;;;4973875;28;20033;-92
2023/05/08 11:51:56;;;;;;;30.15;27.35;;;20.20;99.90;;;;;;4962379;28;20083;-93
2023/05/08 11:54:30;;;;;;;30.27;27.35;;;20.20;99.90;;;;;;4962319;28;20038;-92
2023/05/08 11:57:02;;;;;;;30.70;27.65;;;20.30;99.90;;;;;;4962093;28;20086;-93
2023/05/08 11:59:33;;;;;;;31.42;28.20;;;20.30;99.90;;;;;;4962319;28;20014;-94
2023/05/08 12:02:02;;;;;;;31.65;28.65;;;20.40;99.90;;;;;;4961816;28;20027;-93
2023/05/08 12:04:45;;;;;;;31.95;28.95;;;20.50;99.90;;;;;;4946764;28;20121;-94
2023/05/08 12:07:11;;;;;;;32.35;29.05;;;20.50;99.90;;;;;;4964049;28;20061;-94
2023/05/08 12:09:39;;;;;;;32.55;29.45;;;20.50;99.90;;;;;;4985267;28;20043;-93
2023/05/08 12:12:05;;;;;;;32.85;29.75;;;20.60;99.90;;;;;;4958941;28;20062;-93
2023/05/08 12:14:38;;;;;;;32.22;29.13;;;20.60;99.90;;;;;;4982267;28;20094;-94
2023/05/08 12:17:07;;;;;;;31.35;28.42;;;20.60;99.90;;;;;;4966280;28;20031;-94
2023/05/08 12:19:35;;;;;;;33.38;30.23;;;20.60;99.90;;;;;;4951391;29;20035;-92
2023/05/08 12:22:07;;;;;;;31.08;27.75;;;20.60;99.90;;;;;;4943171;29;20031;-93
2023/05/08 12:24:36;;;;;;;32.05;28.67;;;20.50;99.90;;;;;;4945044;29;20031;-94
2023/05/08 12:27:03;;;;;;;33.83;30.58;;;20.50;99.90;;;;;;4960290;29;20022;-94
2023/05/08 12:29:29;;;;;;;31.50;28.50;;;20.50;99.90;;;;;;4956279;28;20026;-93
2023/05/08 12:31:57;;;;;;;31.45;28.35;;;20.50;99.90;;;;;;4952143;29;20175;-93
2023/05/08 12:34:26;;;;;;;34.10;30.60;;;20.50;99.90;;;;;;4942283;29;20023;-93
2023/05/08 12:37:09;;;;;;;33.72;30.42;;;20.50;99.90;;;;;;4955267;28;20121;-93
2023/05/08 12:39:36;;;;;;;32.42;29.33;;;20.40;99.90;;;;;;4980605;28;20092;-92
2023/05/08 12:42:02;;;;;;;30.35;27.40;;;20.40;99.90;;;;;;4980595;28;20034;-92
2023/05/08 12:44:36;;;;;;;30.63;27.65;;;20.40;99.90;;;;;;4979093;28;20023;-94
2023/05/08 12:47:07;;;;;;;33.17;29.80;;;20.40;99.90;;;;;;4963574;28;20030;-95
2023/05/08 12:49:50;;;;;;;30.83;27.83;;;20.40;99.90;;;;;;4981051;28;20018;-94
2023/05/08 12:52:17;;;;;;;30.42;27.55;;;20.40;99.90;;;;;;4966709;28;20038;-95
2023/05/08 12:54:50;;;;;;;35.83;32.35;;;20.40;99.90;;;;;;4996878;28;20027;-94
2023/05/08 12:57:20;;;;;;;34.97;31.42;;;20.40;99.90;;;;;;4980795;28;20022;-93
2023/05/08 12:59:46;;;;;;;34.38;30.88;;;20.50;99.90;;;;;;4980613;28;20049;-94
2023/05/08 13:02:24;;;;;;;33.15;29.95;;;20.50;99.90;;;;;;4980046;28;20054;-94
2023/05/08 13:04:55;;;;;;;31.15;28.10;;;20.50;99.90;;;;;;4965023;28;20098;-93
2023/05/08 13:07:30;;;;;;;31.77;28.67;;;20.60;99.90;;;;;;4997775;28;20027;-95
2023/05/08 13:10:03;;;;;;;32.65;29.55;;;20.60;99.90;;;;;;4979944;28;20132;-93
2023/05/08 13:12:32;;;;;;;32.60;29.25;;;20.60;99.90;;;;;;4980399;28;20125;-93
2023/05/08 13:15:02;;;;;;;31.15;28.13;;;20.60;99.90;;;;;;4980212;28;20026;-94
2023/05/08 13:17:33;;;;;;;31.67;28.58;;;20.60;99.90;;;;;;4963325;28;20042;-93
2023/05/08 13:20:02;;;;;;;31.85;28.73;;;20.70;99.90;;;;;;4964106;28;20121;-93
2023/05/08 13:22:27;;;;;;;30.52;27.65;;;20.70;99.90;;;;;;4997547;28;20076;-95
2023/05/08 13:25:00;;;;;;;31.50;28.40;;;20.70;99.90;;;;;;4980394;28;20026;-93
2023/05/08 13:27:35;;;;;;;29.98;27.17;;;20.70;99.90;;;;;;4980130;28;20026;-94
2023/05/08 13:30:03;;;;;;;31.13;28.13;;;20.80;99.90;;;;;;4980245;28;20032;-93